sensor_id;sensor_type;location;lat;lon;timestamp;temperature;humidity
8595;DHT22;4335;48.860;9.198;2023-04-25T00:01:23;9.90;99.90
8595;DHT22;4335;48.860;9.198;2023-04-25T00:03:50;9.90;99.90
8595;DHT22;4335;48.860;9.198;2023-04-25T00:06:17;9.90;99.90
8595;DHT22;4335;48.860;9.198;2023-04-25T00:08:44;9.80;99.90
8595;DHT22;4335;48.860;9.198;2023-04-25T00:11:11;9.80;99.90
8595;DHT22;4335;48.860;9.198;2023-04-25T00:13:43;9.80;99.90
8595;DHT22;4335;48.860;9.198;2023-04-25T00:16:12;9.80;99.90
8595;DHT22;4335;48.860;9.198;2023-04-25T00:18:44;9.80;99.90
8595;DHT22;4335;48.860;9.198;2023-04-25T00:21:17;9.80;99.90
8595;DHT22;4335;48.860;9.198;2023-04-25T00:23:46;9.80;99.90
8595;DHT22;4335;48.860;9.198;2023-04-25T00:26:15;9.70;99.90
8595;DHT22;4335;48.860;9.198;2023-04-25T00:28:44;9.70;99.90
8595;DHT22;4335;48.860;9.198;2023-04-25T00:31:11;9.70;99.90
8595;DHT22;4335;48.860;9.198;2023-04-25T00:33:41;9.70;99.90
8595;DHT22;4335;48.860;9.198;2023-04-25T00:36:10;9.60;99.90
8595;DHT22;4335;48.860;9.198;2023-04-25T00:38:37;9.70;99.90
8595;DHT22;4335;48.860;9.198;2023-04-25T00:41:06;9.60;99.90
8595;DHT22;4335;48.860;9.198;2023-04-25T00:43:32;9.60;99.90
8595;DHT22;4335;48.860;9.198;2023-04-25T00:46:00;9.60;99.90
8595;DHT22;4335;48.860;9.198;2023-04-25T00:48:27;9.60;99.90
8595;DHT22;4335;48.860;9.198;2023-04-25T00:50:55;9.60;99.90
8595;DHT22;4335;48.860;9.198;2023-04-25T00:53:27;9.60;99.90
8595;DHT22;4335;48.860;9.198;2023-04-25T00:55:54;9.60;99.90
8595;DHT22;4335;48.860;9.198;2023-04-25T00:58:22;9.60;99.90
8595;DHT22;4335;48.860;9.198;2023-04-25T01:00:50;9.60;99.90
8595;DHT22;4335;48.860;9.198;2023-04-25T01:03:18;9.60;99.90
8595;DHT22;4335;48.860;9.198;2023-04-25T01:05:53;9.60;99.90
8595;DHT22;4335;48.860;9.198;2023-04-25T01:08:22;9.60;99.90
8595;DHT22;4335;48.860;9.198;2023-04-25T01:10:50;9.60;99.90
8595;DHT22;4335;48.860;9.198;2023-04-25T01:13:19;9.50;99.90
8595;DHT22;4335;48.860;9.198;2023-04-25T01:15:47;9.50;99.90
8595;DHT22;4335;48.860;9.198;2023-04-25T01:18:18;9.50;99.90
8595;DHT22;4335;48.860;9.198;2023-04-25T01:20:49;9.50;99.90
8595;DHT22;4335;48.860;9.198;2023-04-25T01:23:18;9.50;99.90
8595;DHT22;4335;48.860;9.198;2023-04-25T01:25:45;9.50;99.90
8595;DHT22;4335;48.860;9.198;2023-04-25T01:28:15;9.50;99.90
8595;DHT22;4335;48.860;9.198;2023-04-25T01:30:43;9.50;99.90
8595;DHT22;4335;48.860;9.198;2023-04-25T01:33:10;9.50;99.90
8595;DHT22;4335;48.860;9.198;2023-04-25T01:35:37;9.50;99.90
8595;DHT22;4335;48.860;9.198;2023-04-25T01:38:04;9.50;99.90
8595;DHT22;4335;48.860;9.198;2023-04-25T01:40:33;9.40;99.90
8595;DHT22;4335;48.860;9.198;2023-04-25T01:43:00;9.40;99.90
8595;DHT22;4335;48.860;9.198;2023-04-25T01:45:30;9.40;99.90
8595;DHT22;4335;48.860;9.198;2023-04-25T01:47:57;9.30;99.90
8595;DHT22;4335;48.860;9.198;2023-04-25T01:50:25;9.40;99.90
8595;DHT22;4335;48.860;9.198;2023-04-25T01:52:55;9.30;99.90
8595;DHT22;4335;48.860;9.198;2023-04-25T01:55:44;9.40;99.90
8595;DHT22;4335;48.860;9.198;2023-04-25T01:58:13;9.30;99.90
8595;DHT22;4335;48.860;9.198;2023-04-25T02:00:46;9.40;99.90
8595;DHT22;4335;48.860;9.198;2023-04-25T02:03:13;9.30;99.90
8595;DHT22;4335;48.860;9.198;2023-04-25T02:05:40;9.30;99.90
8595;DHT22;4335;48.860;9.198;2023-04-25T02:08:22;9.30;99.90
8595;DHT22;4335;48.860;9.198;2023-04-25T02:10:52;9.30;99.90
8595;DHT22;4335;48.860;9.198;2023-04-25T02:13:25;9.30;99.90
8595;DHT22;4335;48.860;9.198;2023-04-25T02:15:54;9.40;99.90
8595;DHT22;4335;48.860;9.198;2023-04-25T02:18:21;9.40;99.90
8595;DHT22;4335;48.860;9.198;2023-04-25T02:20:48;9.40;99.90
8595;DHT22;4335;48.860;9.198;2023-04-25T02:23:14;9.30;99.90
8595;DHT22;4335;48.860;9.198;2023-04-25T02:25:41;9.30;99.90
8595;DHT22;4335;48.860;9.198;2023-04-25T02:28:09;9.30;99.90
8595;DHT22;4335;48.860;9.198;2023-04-25T02:30:36;9.30;99.90
8595;DHT22;4335;48.860;9.198;2023-04-25T02:33:02;9.30;99.90
8595;DHT22;4335;48.860;9.198;2023-04-25T02:35:32;9.30;99.90
8595;DHT22;4335;48.860;9.198;2023-04-25T02:37:59;9.30;99.90
8595;DHT22;4335;48.860;9.198;2023-04-25T02:40:26;9.20;99.90
8595;DHT22;4335;48.860;9.198;2023-04-25T02:42:52;9.20;99.90
8595;DHT22;4335;48.860;9.198;2023-04-25T02:45:20;9.10;99.90
8595;DHT22;4335;48.860;9.198;2023-04-25T02:47:50;9.10;99.90
8595;DHT22;4335;48.860;9.198;2023-04-25T02:50:19;9.10;99.90
8595;DHT22;4335;48.860;9.198;2023-04-25T02:52:46;9.10;99.90
8595;DHT22;4335;48.860;9.198;2023-04-25T02:55:13;9.10;99.90
8595;DHT22;4335;48.860;9.198;2023-04-25T02:57:40;9.10;99.90
8595;DHT22;4335;48.860;9.198;2023-04-25T03:00:10;9.10;99.90
8595;DHT22;4335;48.860;9.198;2023-04-25T03:02:40;9.10;99.90
8595;DHT22;4335;48.860;9.198;2023-04-25T03:05:07;9.20;99.90
8595;DHT22;4335;48.860;9.198;2023-04-25T03:07:37;9.20;99.90
8595;DHT22;4335;48.860;9.198;2023-04-25T03:10:08;9.20;99.90
8595;DHT22;4335;48.860;9.198;2023-04-25T03:12:37;9.20;99.90
8595;DHT22;4335;48.860;9.198;2023-04-25T03:15:05;9.20;99.90
8595;DHT22;4335;48.860;9.198;2023-04-25T03:17:32;9.10;99.90
8595;DHT22;4335;48.860;9.198;2023-04-25T03:20:02;9.10;99.90
8595;DHT22;4335;48.860;9.198;2023-04-25T03:22:30;9.00;99.90
8595;DHT22;4335;48.860;9.198;2023-04-25T03:25:00;9.00;99.90
8595;DHT22;4335;48.860;9.198;2023-04-25T03:27:26;9.00;99.90
8595;DHT22;4335;48.860;9.198;2023-04-25T03:29:53;8.90;99.90
8595;DHT22;4335;48.860;9.198;2023-04-25T03:32:20;9.00;99.90
8595;DHT22;4335;48.860;9.198;2023-04-25T03:34:46;8.90;99.90
8595;DHT22;4335;48.860;9.198;2023-04-25T03:37:24;8.90;99.90
8595;DHT22;4335;48.860;9.198;2023-04-25T03:39:54;8.80;99.90
8595;DHT22;4335;48.860;9.198;2023-04-25T03:42:20;8.80;99.90
8595;DHT22;4335;48.860;9.198;2023-04-25T03:44:48;8.90;99.90
8595;DHT22;4335;48.860;9.198;2023-04-25T03:47:15;8.90;99.90
8595;DHT22;4335;48.860;9.198;2023-04-25T03:49:42;9.00;99.90
8595;DHT22;4335;48.860;9.198;2023-04-25T03:52:09;9.00;99.90
8595;DHT22;4335;48.860;9.198;2023-04-25T03:54:36;9.00;99.90
8595;DHT22;4335;48.860;9.198;2023-04-25T03:57:09;9.00;99.90
8595;DHT22;4335;48.860;9.198;2023-04-25T03:59:38;9.00;99.90
8595;DHT22;4335;48.860;9.198;2023-04-25T04:02:06;9.00;99.90
8595;DHT22;4335;48.860;9.198;2023-04-25T04:04:33;9.00;99.90
8595;DHT22;4335;48.860;9.198;2023-04-25T04:06:59;9.00;99.90
8595;DHT22;4335;48.860;9.198;2023-04-25T04:09:28;9.00;99.90
8595;DHT22;4335;48.860;9.198;2023-04-25T04:11:55;9.00;99.90
8595;DHT22;4335;48.860;9.198;2023-04-25T04:14:22;8.90;99.90
8595;DHT22;4335;48.860;9.198;2023-04-25T04:16:48;8.90;99.90
8595;DHT22;4335;48.860;9.198;2023-04-25T04:19:23;8.90;99.90
8595;DHT22;4335;48.860;9.198;2023-04-25T04:21:49;8.90;99.90
8595;DHT22;4335;48.860;9.198;2023-04-25T04:24:16;8.90;99.90
8595;DHT22;4335;48.860;9.198;2023-04-25T04:26:42;8.90;99.90
8595;DHT22;4335;48.860;9.198;2023-04-25T04:29:14;9.00;99.90
8595;DHT22;4335;48.860;9.198;2023-04-25T04:31:50;8.90;99.90
8595;DHT22;4335;48.860;9.198;2023-04-25T04:34:24;8.90;99.90
8595;DHT22;4335;48.860;9.198;2023-04-25T04:36:54;9.00;99.90
8595;DHT22;4335;48.860;9.198;2023-04-25T04:39:21;9.00;99.90
8595;DHT22;4335;48.860;9.198;2023-04-25T04:41:53;9.00;99.90
8595;DHT22;4335;48.860;9.198;2023-04-25T04:44:24;9.00;99.90
8595;DHT22;4335;48.860;9.198;2023-04-25T04:46:53;9.00;99.90
8595;DHT22;4335;48.860;9.198;2023-04-25T04:49:22;9.10;99.90
8595;DHT22;4335;48.860;9.198;2023-04-25T04:51:49;9.20;99.90
8595;DHT22;4335;48.860;9.198;2023-04-25T04:54:19;9.30;99.90
8595;DHT22;4335;48.860;9.198;2023-04-25T04:56:46;9.30;99.90
8595;DHT22;4335;48.860;9.198;2023-04-25T04:59:12;9.40;99.90
8595;DHT22;4335;48.860;9.198;2023-04-25T05:01:40;9.40;99.90
8595;DHT22;4335;48.860;9.198;2023-04-25T05:04:12;9.50;99.90
8595;DHT22;4335;48.860;9.198;2023-04-25T05:06:39;9.50;99.90
8595;DHT22;4335;48.860;9.198;2023-04-25T05:09:09;9.60;99.90
8595;DHT22;4335;48.860;9.198;2023-04-25T05:11:35;9.60;99.90
8595;DHT22;4335;48.860;9.198;2023-04-25T05:14:02;9.60;99.90
8595;DHT22;4335;48.860;9.198;2023-04-25T05:16:28;9.70;99.90
8595;DHT22;4335;48.860;9.198;2023-04-25T05:18:56;9.70;99.90
8595;DHT22;4335;48.860;9.198;2023-04-25T05:21:23;9.80;99.90
8595;DHT22;4335;48.860;9.198;2023-04-25T05:23:55;9.80;99.90
8595;DHT22;4335;48.860;9.198;2023-04-25T05:26:22;9.80;99.90
8595;DHT22;4335;48.860;9.198;2023-04-25T05:28:49;9.90;99.90
8595;DHT22;4335;48.860;9.198;2023-04-25T05:31:17;10.00;99.90
8595;DHT22;4335;48.860;9.198;2023-04-25T05:33:43;10.20;99.90
8595;DHT22;4335;48.860;9.198;2023-04-25T05:36:11;10.20;99.90
8595;DHT22;4335;48.860;9.198;2023-04-25T05:38:41;10.30;99.90
8595;DHT22;4335;48.860;9.198;2023-04-25T05:41:08;10.30;99.90
8595;DHT22;4335;48.860;9.198;2023-04-25T05:43:34;10.30;99.90
8595;DHT22;4335;48.860;9.198;2023-04-25T05:46:01;10.30;99.90
8595;DHT22;4335;48.860;9.198;2023-04-25T05:48:31;10.20;99.90
8595;DHT22;4335;48.860;9.198;2023-04-25T05:51:03;10.10;99.90
8595;DHT22;4335;48.860;9.198;2023-04-25T05:53:33;10.10;99.90
8595;DHT22;4335;48.860;9.198;2023-04-25T05:56:00;10.00;99.90
8595;DHT22;4335;48.860;9.198;2023-04-25T05:58:32;10.00;99.90
8595;DHT22;4335;48.860;9.198;2023-04-25T06:01:02;10.00;99.90
8595;DHT22;4335;48.860;9.198;2023-04-25T06:03:28;10.00;99.90
8595;DHT22;4335;48.860;9.198;2023-04-25T06:05:55;10.10;99.90
8595;DHT22;4335;48.860;9.198;2023-04-25T06:08:22;10.10;99.90
8595;DHT22;4335;48.860;9.198;2023-04-25T06:10:50;10.10;99.90
8595;DHT22;4335;48.860;9.198;2023-04-25T06:13:16;10.10;99.90
8595;DHT22;4335;48.860;9.198;2023-04-25T06:15:43;10.10;99.90
8595;DHT22;4335;48.860;9.198;2023-04-25T06:18:09;10.20;99.90
8595;DHT22;4335;48.860;9.198;2023-04-25T06:20:36;10.30;99.90
8595;DHT22;4335;48.860;9.198;2023-04-25T06:23:03;10.30;99.90
8595;DHT22;4335;48.860;9.198;2023-04-25T06:25:32;10.30;99.90
8595;DHT22;4335;48.860;9.198;2023-04-25T06:27:59;10.40;99.90
8595;DHT22;4335;48.860;9.198;2023-04-25T06:30:26;10.50;99.90
8595;DHT22;4335;48.860;9.198;2023-04-25T06:32:56;10.60;99.90
8595;DHT22;4335;48.860;9.198;2023-04-25T06:35:22;10.90;99.90
8595;DHT22;4335;48.860;9.198;2023-04-25T06:37:49;11.20;99.90
8595;DHT22;4335;48.860;9.198;2023-04-25T06:40:19;11.40;99.90
8595;DHT22;4335;48.860;9.198;2023-04-25T06:42:46;11.90;99.90
8595;DHT22;4335;48.860;9.198;2023-04-25T06:45:13;12.20;99.90
8595;DHT22;4335;48.860;9.198;2023-04-25T06:47:40;12.50;99.90
8595;DHT22;4335;48.860;9.198;2023-04-25T06:50:07;12.80;99.90
8595;DHT22;4335;48.860;9.198;2023-04-25T06:52:37;13.00;99.90
8595;DHT22;4335;48.860;9.198;2023-04-25T06:55:04;13.10;99.90
8595;DHT22;4335;48.860;9.198;2023-04-25T06:57:31;13.30;99.90
8595;DHT22;4335;48.860;9.198;2023-04-25T06:59:58;13.30;99.90
8595;DHT22;4335;48.860;9.198;2023-04-25T07:02:25;13.20;99.90
8595;DHT22;4335;48.860;9.198;2023-04-25T07:04:54;13.00;99.90
8595;DHT22;4335;48.860;9.198;2023-04-25T07:07:28;12.80;99.90
8595;DHT22;4335;48.860;9.198;2023-04-25T07:09:58;12.70;99.90
8595;DHT22;4335;48.860;9.198;2023-04-25T07:12:28;12.40;99.90
8595;DHT22;4335;48.860;9.198;2023-04-25T07:14:54;12.30;99.90
8595;DHT22;4335;48.860;9.198;2023-04-25T07:17:21;12.10;99.90
8595;DHT22;4335;48.860;9.198;2023-04-25T07:19:48;12.00;99.90
8595;DHT22;4335;48.860;9.198;2023-04-25T07:22:15;11.80;99.90
8595;DHT22;4335;48.860;9.198;2023-04-25T07:24:45;11.80;99.90
8595;DHT22;4335;48.860;9.198;2023-04-25T07:27:14;11.70;99.90
8595;DHT22;4335;48.860;9.198;2023-04-25T07:29:46;11.70;99.90
8595;DHT22;4335;48.860;9.198;2023-04-25T07:32:13;11.60;99.90
8595;DHT22;4335;48.860;9.198;2023-04-25T07:34:43;11.50;99.90
8595;DHT22;4335;48.860;9.198;2023-04-25T07:37:10;11.40;99.90
8595;DHT22;4335;48.860;9.198;2023-04-25T07:39:37;11.20;99.90
8595;DHT22;4335;48.860;9.198;2023-04-25T07:42:04;11.20;99.90
8595;DHT22;4335;48.860;9.198;2023-04-25T07:44:36;11.10;99.90
8595;DHT22;4335;48.860;9.198;2023-04-25T07:47:04;10.90;99.90
8595;DHT22;4335;48.860;9.198;2023-04-25T07:49:32;10.90;99.90
8595;DHT22;4335;48.860;9.198;2023-04-25T07:52:00;10.90;99.90
8595;DHT22;4335;48.860;9.198;2023-04-25T07:54:30;10.90;99.90
8595;DHT22;4335;48.860;9.198;2023-04-25T07:56:57;10.90;99.90
8595;DHT22;4335;48.860;9.198;2023-04-25T07:59:24;10.80;99.90
8595;DHT22;4335;48.860;9.198;2023-04-25T08:01:51;10.80;99.90
8595;DHT22;4335;48.860;9.198;2023-04-25T08:04:17;10.80;99.90
8595;DHT22;4335;48.860;9.198;2023-04-25T08:06:44;10.70;99.90
8595;DHT22;4335;48.860;9.198;2023-04-25T08:09:12;10.70;99.90
8595;DHT22;4335;48.860;9.198;2023-04-25T08:11:48;10.60;99.90
8595;DHT22;4335;48.860;9.198;2023-04-25T08:14:15;10.60;99.90
8595;DHT22;4335;48.860;9.198;2023-04-25T08:16:42;10.50;99.90
8595;DHT22;4335;48.860;9.198;2023-04-25T08:19:08;10.30;99.90
8595;DHT22;4335;48.860;9.198;2023-04-25T08:21:36;10.20;99.90
8595;DHT22;4335;48.860;9.198;2023-04-25T08:24:07;10.20;99.90
8595;DHT22;4335;48.860;9.198;2023-04-25T08:26:37;10.10;99.90
8595;DHT22;4335;48.860;9.198;2023-04-25T08:29:05;10.10;99.90
8595;DHT22;4335;48.860;9.198;2023-04-25T08:31:38;10.10;99.90
8595;DHT22;4335;48.860;9.198;2023-04-25T08:34:14;10.20;99.90
8595;DHT22;4335;48.860;9.198;2023-04-25T08:36:43;10.10;99.90
8595;DHT22;4335;48.860;9.198;2023-04-25T08:39:10;10.00;99.90
8595;DHT22;4335;48.860;9.198;2023-04-25T08:41:37;10.10;99.90
8595;DHT22;4335;48.860;9.198;2023-04-25T08:44:06;10.00;99.90
8595;DHT22;4335;48.860;9.198;2023-04-25T08:46:38;10.00;99.90
8595;DHT22;4335;48.860;9.198;2023-04-25T08:49:05;10.10;99.90
8595;DHT22;4335;48.860;9.198;2023-04-25T08:51:32;10.10;99.90
8595;DHT22;4335;48.860;9.198;2023-04-25T08:54:09;10.00;99.90
8595;DHT22;4335;48.860;9.198;2023-04-25T08:56:40;9.90;99.90
8595;DHT22;4335;48.860;9.198;2023-04-25T08:59:12;9.90;99.90
8595;DHT22;4335;48.860;9.198;2023-04-25T09:01:39;9.80;99.90
8595;DHT22;4335;48.860;9.198;2023-04-25T09:04:06;9.80;99.90
8595;DHT22;4335;48.860;9.198;2023-04-25T09:06:33;9.80;99.90
8595;DHT22;4335;48.860;9.198;2023-04-25T09:09:05;9.60;99.90
8595;DHT22;4335;48.860;9.198;2023-04-25T09:11:36;9.60;99.90
8595;DHT22;4335;48.860;9.198;2023-04-25T09:14:15;9.60;99.90
8595;DHT22;4335;48.860;9.198;2023-04-25T09:17:03;9.60;99.90
8595;DHT22;4335;48.860;9.198;2023-04-25T09:19:32;9.70;99.90
8595;DHT22;4335;48.860;9.198;2023-04-25T09:22:02;9.70;99.90
8595;DHT22;4335;48.860;9.198;2023-04-25T09:24:34;9.60;99.90
8595;DHT22;4335;48.860;9.198;2023-04-25T09:27:03;9.70;99.90
8595;DHT22;4335;48.860;9.198;2023-04-25T09:29:32;9.70;99.90
8595;DHT22;4335;48.860;9.198;2023-04-25T09:32:18;9.80;99.90
8595;DHT22;4335;48.860;9.198;2023-04-25T09:34:47;9.80;99.90
8595;DHT22;4335;48.860;9.198;2023-04-25T09:37:19;9.80;99.90
8595;DHT22;4335;48.860;9.198;2023-04-25T09:39:47;9.80;99.90
8595;DHT22;4335;48.860;9.198;2023-04-25T09:42:15;9.80;99.90
8595;DHT22;4335;48.860;9.198;2023-04-25T09:44:44;9.70;99.90
8595;DHT22;4335;48.860;9.198;2023-04-25T09:47:15;9.70;99.90
8595;DHT22;4335;48.860;9.198;2023-04-25T09:49:43;9.60;99.90
8595;DHT22;4335;48.860;9.198;2023-04-25T09:52:14;9.60;99.90
8595;DHT22;4335;48.860;9.198;2023-04-25T09:54:47;9.60;99.90
8595;DHT22;4335;48.860;9.198;2023-04-25T09:57:15;9.60;99.90
8595;DHT22;4335;48.860;9.198;2023-04-25T09:59:50;9.50;99.90
8595;DHT22;4335;48.860;9.198;2023-04-25T10:02:19;9.50;99.90
8595;DHT22;4335;48.860;9.198;2023-04-25T10:04:48;9.50;99.90
8595;DHT22;4335;48.860;9.198;2023-04-25T10:07:18;9.50;99.90
8595;DHT22;4335;48.860;9.198;2023-04-25T10:09:49;9.60;99.90
8595;DHT22;4335;48.860;9.198;2023-04-25T10:12:18;9.60;99.90
8595;DHT22;4335;48.860;9.198;2023-04-25T10:14:44;9.50;99.90
8595;DHT22;4335;48.860;9.198;2023-04-25T10:17:14;9.40;99.90
8595;DHT22;4335;48.860;9.198;2023-04-25T10:19:41;9.30;99.90
8595;DHT22;4335;48.860;9.198;2023-04-25T10:22:17;9.20;99.90
8595;DHT22;4335;48.860;9.198;2023-04-25T10:24:45;9.10;99.90
8595;DHT22;4335;48.860;9.198;2023-04-25T10:27:16;9.00;99.90
8595;DHT22;4335;48.860;9.198;2023-04-25T10:29:44;8.90;99.90
8595;DHT22;4335;48.860;9.198;2023-04-25T10:32:11;8.90;99.90
8595;DHT22;4335;48.860;9.198;2023-04-25T10:34:40;8.80;99.90
8595;DHT22;4335;48.860;9.198;2023-04-25T10:37:12;8.90;99.90
8595;DHT22;4335;48.860;9.198;2023-04-25T10:39:41;8.90;99.90
8595;DHT22;4335;48.860;9.198;2023-04-25T10:42:08;8.90;99.90
8595;DHT22;4335;48.860;9.198;2023-04-25T10:44:38;8.80;99.90
8595;DHT22;4335;48.860;9.198;2023-04-25T10:47:08;8.80;99.90
8595;DHT22;4335;48.860;9.198;2023-04-25T10:49:37;8.70;99.90
8595;DHT22;4335;48.860;9.198;2023-04-25T10:52:13;8.80;99.90
8595;DHT22;4335;48.860;9.198;2023-04-25T10:54:42;8.80;99.90
8595;DHT22;4335;48.860;9.198;2023-04-25T10:57:30;8.70;99.90
8595;DHT22;4335;48.860;9.198;2023-04-25T11:00:01;8.70;99.90
8595;DHT22;4335;48.860;9.198;2023-04-25T11:02:37;8.70;99.90
8595;DHT22;4335;48.860;9.198;2023-04-25T11:05:05;8.70;99.90
8595;DHT22;4335;48.860;9.198;2023-04-25T11:07:39;8.80;99.90
8595;DHT22;4335;48.860;9.198;2023-04-25T11:10:14;8.90;99.90
8595;DHT22;4335;48.860;9.198;2023-04-25T11:12:41;8.90;99.90
8595;DHT22;4335;48.860;9.198;2023-04-25T11:15:11;9.00;99.90
8595;DHT22;4335;48.860;9.198;2023-04-25T11:17:39;9.20;99.90
8595;DHT22;4335;48.860;9.198;2023-04-25T11:20:07;9.30;99.90
8595;DHT22;4335;48.860;9.198;2023-04-25T11:22:38;9.50;99.90
8595;DHT22;4335;48.860;9.198;2023-04-25T11:25:07;9.60;99.90
8595;DHT22;4335;48.860;9.198;2023-04-25T11:27:34;9.70;99.90
8595;DHT22;4335;48.860;9.198;2023-04-25T11:30:14;9.80;99.90
8595;DHT22;4335;48.860;9.198;2023-04-25T11:32:44;9.80;99.90
8595;DHT22;4335;48.860;9.198;2023-04-25T11:35:12;9.90;99.90
8595;DHT22;4335;48.860;9.198;2023-04-25T11:37:40;9.90;99.90
8595;DHT22;4335;48.860;9.198;2023-04-25T11:40:08;9.90;99.90
8595;DHT22;4335;48.860;9.198;2023-04-25T11:42:39;9.90;99.90
8595;DHT22;4335;48.860;9.198;2023-04-25T11:45:06;10.00;99.90
8595;DHT22;4335;48.860;9.198;2023-04-25T11:47:34;10.00;99.90
8595;DHT22;4335;48.860;9.198;2023-04-25T11:50:01;10.10;99.90
8595;DHT22;4335;48.860;9.198;2023-04-25T11:52:39;10.20;99.90
8595;DHT22;4335;48.860;9.198;2023-04-25T11:55:07;10.20;99.90
8595;DHT22;4335;48.860;9.198;2023-04-25T11:57:38;10.20;99.90
8595;DHT22;4335;48.860;9.198;2023-04-25T12:00:11;10.10;99.90
8595;DHT22;4335;48.860;9.198;2023-04-25T12:02:41;10.10;99.90
8595;DHT22;4335;48.860;9.198;2023-04-25T12:05:08;10.10;99.90
8595;DHT22;4335;48.860;9.198;2023-04-25T12:07:35;10.00;99.90
8595;DHT22;4335;48.860;9.198;2023-04-25T12:10:08;9.90;99.90
8595;DHT22;4335;48.860;9.198;2023-04-25T12:12:35;9.60;99.90
8595;DHT22;4335;48.860;9.198;2023-04-25T12:15:10;9.60;99.90
8595;DHT22;4335;48.860;9.198;2023-04-25T12:17:39;9.70;99.90
8595;DHT22;4335;48.860;9.198;2023-04-25T12:20:13;9.70;99.90
8595;DHT22;4335;48.860;9.198;2023-04-25T12:22:41;9.60;99.90
8595;DHT22;4335;48.860;9.198;2023-04-25T12:25:34;9.70;99.90
8595;DHT22;4335;48.860;9.198;2023-04-25T12:28:12;9.70;99.90
8595;DHT22;4335;48.860;9.198;2023-04-25T12:30:55;9.70;99.90
8595;DHT22;4335;48.860;9.198;2023-04-25T12:33:21;9.90;99.90
8595;DHT22;4335;48.860;9.198;2023-04-25T12:35:48;10.00;99.90
8595;DHT22;4335;48.860;9.198;2023-04-25T12:38:21;10.10;99.90
8595;DHT22;4335;48.860;9.198;2023-04-25T12:40:51;10.20;99.90
8595;DHT22;4335;48.860;9.198;2023-04-25T12:43:18;10.40;99.90
8595;DHT22;4335;48.860;9.198;2023-04-25T12:45:45;10.70;99.90
8595;DHT22;4335;48.860;9.198;2023-04-25T12:48:13;11.00;99.90
8595;DHT22;4335;48.860;9.198;2023-04-25T12:50:40;11.20;99.90
8595;DHT22;4335;48.860;9.198;2023-04-25T12:53:07;11.50;99.90
8595;DHT22;4335;48.860;9.198;2023-04-25T12:55:40;11.80;99.90
8595;DHT22;4335;48.860;9.198;2023-04-25T12:58:07;12.00;99.90
8595;DHT22;4335;48.860;9.198;2023-04-25T13:00:37;12.40;99.90
8595;DHT22;4335;48.860;9.198;2023-04-25T13:03:04;12.60;99.90
8595;DHT22;4335;48.860;9.198;2023-04-25T13:05:37;12.40;99.90
8595;DHT22;4335;48.860;9.198;2023-04-25T13:08:07;12.40;99.90
8595;DHT22;4335;48.860;9.198;2023-04-25T13:10:36;12.40;99.90
8595;DHT22;4335;48.860;9.198;2023-04-25T13:13:04;12.50;99.90
8595;DHT22;4335;48.860;9.198;2023-04-25T13:15:32;12.40;99.90
8595;DHT22;4335;48.860;9.198;2023-04-25T13:17:59;12.30;99.90
8595;DHT22;4335;48.860;9.198;2023-04-25T13:20:25;12.20;99.90
8595;DHT22;4335;48.860;9.198;2023-04-25T13:22:52;12.20;99.90
8595;DHT22;4335;48.860;9.198;2023-04-25T13:25:22;12.30;99.90
8595;DHT22;4335;48.860;9.198;2023-04-25T13:27:51;12.40;99.90
8595;DHT22;4335;48.860;9.198;2023-04-25T13:30:18;12.40;99.90
8595;DHT22;4335;48.860;9.198;2023-04-25T13:32:45;12.40;99.90
8595;DHT22;4335;48.860;9.198;2023-04-25T13:35:13;12.30;99.90
8595;DHT22;4335;48.860;9.198;2023-04-25T13:37:42;12.30;99.90
8595;DHT22;4335;48.860;9.198;2023-04-25T13:40:10;12.30;99.90
8595;DHT22;4335;48.860;9.198;2023-04-25T13:42:38;12.30;99.90
8595;DHT22;4335;48.860;9.198;2023-04-25T13:45:08;12.40;99.90
8595;DHT22;4335;48.860;9.198;2023-04-25T13:47:42;12.20;99.90
8595;DHT22;4335;48.860;9.198;2023-04-25T13:50:12;12.20;99.90
8595;DHT22;4335;48.860;9.198;2023-04-25T13:52:45;12.20;99.90
8595;DHT22;4335;48.860;9.198;2023-04-25T13:55:14;12.20;99.90
8595;DHT22;4335;48.860;9.198;2023-04-25T13:57:41;12.30;99.90
8595;DHT22;4335;48.860;9.198;2023-04-25T14:00:15;12.50;99.90
8595;DHT22;4335;48.860;9.198;2023-04-25T14:02:42;12.40;99.90
8595;DHT22;4335;48.860;9.198;2023-04-25T14:05:15;12.40;99.90
8595;DHT22;4335;48.860;9.198;2023-04-25T14:07:42;12.30;99.90
8595;DHT22;4335;48.860;9.198;2023-04-25T14:10:15;12.50;99.90
8595;DHT22;4335;48.860;9.198;2023-04-25T14:12:43;12.50;99.90
8595;DHT22;4335;48.860;9.198;2023-04-25T14:15:10;12.70;99.90
8595;DHT22;4335;48.860;9.198;2023-04-25T14:17:40;12.80;99.90
8595;DHT22;4335;48.860;9.198;2023-04-25T14:20:08;12.90;99.90
8595;DHT22;4335;48.860;9.198;2023-04-25T14:22:39;12.90;99.90
8595;DHT22;4335;48.860;9.198;2023-04-25T14:25:09;12.90;99.90
8595;DHT22;4335;48.860;9.198;2023-04-25T14:27:42;12.80;99.90
8595;DHT22;4335;48.860;9.198;2023-04-25T14:30:13;12.70;99.90
8595;DHT22;4335;48.860;9.198;2023-04-25T14:32:43;12.70;99.90
8595;DHT22;4335;48.860;9.198;2023-04-25T14:35:10;12.80;99.90
8595;DHT22;4335;48.860;9.198;2023-04-25T14:37:41;12.70;99.90
8595;DHT22;4335;48.860;9.198;2023-04-25T14:40:10;12.40;99.90
8595;DHT22;4335;48.860;9.198;2023-04-25T14:42:38;12.40;99.90
8595;DHT22;4335;48.860;9.198;2023-04-25T14:45:06;12.40;99.90
8595;DHT22;4335;48.860;9.198;2023-04-25T14:47:34;12.50;99.90
8595;DHT22;4335;48.860;9.198;2023-04-25T14:50:02;12.40;99.90
8595;DHT22;4335;48.860;9.198;2023-04-25T14:52:35;12.50;99.90
8595;DHT22;4335;48.860;9.198;2023-04-25T14:55:03;12.50;99.90
8595;DHT22;4335;48.860;9.198;2023-04-25T14:57:37;12.50;99.90
8595;DHT22;4335;48.860;9.198;2023-04-25T15:00:07;12.50;99.90
8595;DHT22;4335;48.860;9.198;2023-04-25T15:02:35;12.40;99.90
8595;DHT22;4335;48.860;9.198;2023-04-25T15:05:02;12.10;99.90
8595;DHT22;4335;48.860;9.198;2023-04-25T15:07:35;12.10;99.90
8595;DHT22;4335;48.860;9.198;2023-04-25T15:10:03;12.10;99.90
8595;DHT22;4335;48.860;9.198;2023-04-25T15:12:33;12.10;99.90
8595;DHT22;4335;48.860;9.198;2023-04-25T15:15:00;12.20;99.90
8595;DHT22;4335;48.860;9.198;2023-04-25T15:17:34;12.10;99.90
8595;DHT22;4335;48.860;9.198;2023-04-25T15:20:00;12.10;99.90
8595;DHT22;4335;48.860;9.198;2023-04-25T15:22:32;12.20;99.90
8595;DHT22;4335;48.860;9.198;2023-04-25T15:25:03;12.30;99.90
8595;DHT22;4335;48.860;9.198;2023-04-25T15:27:33;12.30;99.90
8595;DHT22;4335;48.860;9.198;2023-04-25T15:30:04;12.30;99.90
8595;DHT22;4335;48.860;9.198;2023-04-25T15:32:33;12.40;99.90
8595;DHT22;4335;48.860;9.198;2023-04-25T15:35:02;12.40;99.90
8595;DHT22;4335;48.860;9.198;2023-04-25T15:37:39;12.30;99.90
8595;DHT22;4335;48.860;9.198;2023-04-25T15:40:09;12.30;99.90
8595;DHT22;4335;48.860;9.198;2023-04-25T15:42:37;12.40;99.90
8595;DHT22;4335;48.860;9.198;2023-04-25T15:45:05;12.40;99.90
8595;DHT22;4335;48.860;9.198;2023-04-25T15:47:34;12.40;99.90
8595;DHT22;4335;48.860;9.198;2023-04-25T15:50:01;12.30;99.90
8595;DHT22;4335;48.860;9.198;2023-04-25T15:52:30;12.30;99.90
8595;DHT22;4335;48.860;9.198;2023-04-25T15:54:57;12.30;99.90
8595;DHT22;4335;48.860;9.198;2023-04-25T15:57:27;12.20;99.90
8595;DHT22;4335;48.860;9.198;2023-04-25T15:59:54;12.20;99.90
8595;DHT22;4335;48.860;9.198;2023-04-25T16:02:32;12.20;99.90
8595;DHT22;4335;48.860;9.198;2023-04-25T16:04:59;12.20;99.90
8595;DHT22;4335;48.860;9.198;2023-04-25T16:07:25;12.20;99.90
8595;DHT22;4335;48.860;9.198;2023-04-25T16:09:52;12.10;99.90
8595;DHT22;4335;48.860;9.198;2023-04-25T16:12:25;12.20;99.90
8595;DHT22;4335;48.860;9.198;2023-04-25T16:14:53;12.20;99.90
8595;DHT22;4335;48.860;9.198;2023-04-25T16:17:20;12.00;99.90
8595;DHT22;4335;48.860;9.198;2023-04-25T16:19:49;11.90;99.90
8595;DHT22;4335;48.860;9.198;2023-04-25T16:22:16;11.80;99.90